createdAt,value
2023-02-18T00:01:18.827Z,101901.75
2023-02-18T00:03:46.875Z,101893.75
2023-02-18T00:06:15.936Z,101895.50
2023-02-18T00:08:45.110Z,101890.88
2023-02-18T00:11:13.845Z,101896.47
2023-02-18T00:13:43.439Z,101895.38
2023-02-18T00:16:13.087Z,101890.00
2023-02-18T00:18:41.038Z,101889.13
2023-02-18T00:21:09.641Z,101883.53
2023-02-18T00:23:37.820Z,101880.03
2023-02-18T00:26:08.644Z,101877.16
2023-02-18T00:28:37.643Z,101879.16
2023-02-18T00:31:11.644Z,101869.81
2023-02-18T00:33:40.196Z,101864.59
2023-02-18T00:36:10.362Z,101852.59
2023-02-18T00:38:38.676Z,101857.47
2023-02-18T00:41:07.103Z,101841.78
2023-02-18T00:43:35.232Z,101854.72
2023-02-18T00:46:03.394Z,101850.09
2023-02-18T00:48:34.007Z,101854.72
2023-02-18T00:51:02.503Z,101859.31
2023-02-18T00:53:31.026Z,101854.84
2023-02-18T00:56:00.601Z,101847.69
2023-02-18T00:58:28.695Z,101852.31
2023-02-18T01:00:57.567Z,101856.03
2023-02-18T01:03:25.749Z,101847.81
2023-02-18T01:05:55.259Z,101849.56
2023-02-18T01:08:28.671Z,101834.09
2023-02-18T01:10:59.658Z,101839.59
2023-02-18T01:13:30.210Z,101827.78
2023-02-18T01:15:58.309Z,101818.66
2023-02-18T01:18:26.688Z,101818.66
2023-02-18T01:20:56.014Z,101827.78
2023-02-18T01:23:24.562Z,101823.28
2023-02-18T01:25:52.736Z,101827.88
2023-02-18T01:28:21.437Z,101825.16
2023-02-18T01:30:51.320Z,101824.28
2023-02-18T01:33:19.834Z,101830.63
2023-02-18T01:35:48.285Z,101821.41
2023-02-18T01:38:17.984Z,101816.81
2023-02-18T01:40:48.791Z,101807.69
2023-02-18T01:43:17.288Z,101814.16
2023-02-18T01:45:58.828Z,101805.84
2023-02-18T01:48:32.398Z,101801.34
2023-02-18T01:51:05.463Z,101804.97
2023-02-18T01:53:39.098Z,101794.88
2023-02-18T01:56:12.538Z,101785.75
2023-02-18T01:58:40.904Z,101795.97
2023-02-18T02:01:12.415Z,101806.81
2023-02-18T02:03:40.470Z,101798.72
2023-02-18T02:06:15.795Z,101786.75
2023-02-18T02:08:46.870Z,101782.25
2023-02-18T02:11:25.740Z,101788.63
2023-02-18T02:14:17.748Z,101783.25
2023-02-18T02:16:51.691Z,101780.63
2023-02-18T02:19:56.644Z,101785.34
2023-02-18T02:22:59.046Z,101781.59
2023-02-18T02:25:48.139Z,101770.75
2023-02-18T02:28:52.310Z,101773.88
2023-02-18T02:31:48.007Z,101759.28
2023-02-18T02:34:40.467Z,101762.03
2023-02-18T02:37:17.802Z,101749.56
2023-02-18T02:39:58.797Z,101755.78
2023-02-18T02:42:44.660Z,101739.47
2023-02-18T02:45:25.121Z,101743.31
2023-02-18T02:48:00.958Z,101748.78
2023-02-18T02:50:38.805Z,101737.91
2023-02-18T02:53:17.892Z,101749.88
2023-02-18T02:55:46.382Z,101738.13
2023-02-18T02:58:17.511Z,101736.16
2023-02-18T03:00:59.865Z,101738.91
2023-02-18T03:03:44.966Z,101739.00
2023-02-18T03:06:50.123Z,101734.00
2023-02-18T03:09:22.886Z,101732.16
2023-02-18T03:12:01.432Z,101726.44
2023-02-18T03:14:42.263Z,101716.47
2023-02-18T03:17:17.366Z,101711.97
2023-02-18T03:19:50.898Z,101706.50
2023-02-18T03:22:26.786Z,101711.09
2023-02-18T03:24:58.618Z,101711.09
2023-02-18T03:27:29.951Z,101715.69
2023-02-18T03:30:03.159Z,101705.84
2023-02-18T03:32:35.275Z,101703.09
2023-02-18T03:35:09.286Z,101707.59
2023-02-18T03:37:41.393Z,101697.38
2023-02-18T03:40:11.371Z,101704.84
2023-02-18T03:42:39.289Z,101694.75
2023-02-18T03:45:08.478Z,101688.28
2023-02-18T03:47:36.712Z,101686.53
2023-02-18T03:50:05.119Z,101682.03
2023-02-18T03:52:33.062Z,101684.66
2023-02-18T03:55:02.366Z,101672.72
2023-02-18T03:57:31.491Z,101673.81
2023-02-18T03:59:59.308Z,101665.59
2023-02-18T04:02:27.166Z,101663.72
2023-02-18T04:04:55.028Z,101659.25
2023-02-18T04:07:23.039Z,101665.59
2023-02-18T04:09:51.026Z,101655.63
2023-02-18T04:12:20.131Z,101654.63
2023-02-18T04:14:47.990Z,101650.28
2023-02-18T04:17:15.785Z,101644.91
2023-02-18T04:19:43.883Z,101643.06
2023-02-18T04:22:11.685Z,101646.66
2023-02-18T04:24:39.462Z,101644.03
2023-02-18T04:27:07.265Z,101644.03
2023-02-18T04:29:36.665Z,101647.66
2023-02-18T04:32:04.699Z,101642.28
2023-02-18T04:34:32.512Z,101642.41
2023-02-18T04:37:00.325Z,101638.91
2023-02-18T04:39:28.133Z,101641.53
2023-02-18T04:41:55.878Z,101631.81
2023-02-18T04:44:23.630Z,101638.91
2023-02-18T04:46:52.728Z,101628.81
2023-02-18T04:49:20.441Z,101623.59
2023-02-18T04:51:48.534Z,101621.75
2023-02-18T04:54:16.248Z,101622.63
2023-02-18T04:56:44.037Z,101622.72
2023-02-18T04:59:12.568Z,101621.84
2023-02-18T05:01:40.309Z,101614.63
2023-02-18T05:04:09.628Z,101620.00
2023-02-18T05:06:39.455Z,101615.59
2023-02-18T05:09:07.369Z,101618.34
2023-02-18T05:11:35.060Z,101619.34
2023-02-18T05:14:02.949Z,101613.09
2023-02-18T05:16:31.513Z,101618.59
2023-02-18T05:18:59.257Z,101601.41
2023-02-18T05:21:28.354Z,101605.03
2023-02-18T05:23:56.087Z,101602.41
2023-02-18T05:26:23.905Z,101596.03
2023-02-18T05:28:51.821Z,101593.41
2023-02-18T05:31:19.618Z,101581.69
2023-02-18T05:33:47.344Z,101571.72
2023-02-18T05:36:15.182Z,101563.66
2023-02-18T05:38:44.242Z,101565.53
2023-02-18T05:41:11.959Z,101563.88
2023-02-18T05:43:53.627Z,101569.47
2023-02-18T05:46:21.475Z,101565.97
2023-02-18T05:48:49.597Z,101559.63
2023-02-18T05:51:17.528Z,101548.81
2023-02-18T05:53:46.590Z,101558.75
2023-02-18T05:56:14.418Z,101549.94
2023-02-18T05:58:42.246Z,101544.56
2023-02-18T06:01:10.056Z,101550.16
2023-02-18T06:03:37.734Z,101540.19
2023-02-18T06:06:06.502Z,101542.06
2023-02-18T06:08:34.365Z,101542.31
2023-02-18T06:11:03.790Z,101546.81
2023-02-18T06:13:31.686Z,101547.91
2023-02-18T06:15:59.522Z,101538.81
2023-02-18T06:18:27.387Z,101547.03
2023-02-18T06:20:55.640Z,101544.41
2023-02-18T06:23:23.387Z,101547.16
2023-02-18T06:25:51.367Z,101548.03
2023-02-18T06:28:20.456Z,101542.53
2023-02-18T06:30:48.281Z,101544.53
2023-02-18T06:33:16.198Z,101542.81
2023-02-18T06:35:44.180Z,101543.69
2023-02-18T06:38:11.892Z,101542.81
2023-02-18T06:40:39.631Z,101551.03
2023-02-18T06:43:07.338Z,101536.44
2023-02-18T06:45:36.517Z,101544.53
2023-02-18T06:48:04.233Z,101544.66
2023-02-18T06:50:31.968Z,101535.56
2023-02-18T06:53:00.149Z,101530.97
2023-02-18T06:55:27.926Z,101538.31
2023-02-18T06:57:55.649Z,101542.81
2023-02-18T07:00:23.787Z,101539.31
2023-02-18T07:02:52.886Z,101548.28
2023-02-18T07:05:20.792Z,101546.53
2023-02-18T07:07:48.542Z,101552.00
2023-02-18T07:10:16.421Z,101555.63
2023-02-18T07:12:44.215Z,101555.63
2023-02-18T07:15:12.599Z,101552.75
2023-02-18T07:17:40.335Z,101552.00
2023-02-18T07:20:10.618Z,101549.00
2023-02-18T07:22:38.345Z,101553.75
2023-02-18T07:25:06.582Z,101553.75
2023-02-18T07:27:34.539Z,101541.94
2023-02-18T07:30:02.311Z,101550.16
2023-02-18T07:32:30.166Z,101541.94
2023-02-18T07:34:57.947Z,101547.41
2023-02-18T07:37:27.206Z,101552.75
2023-02-18T07:39:54.932Z,101552.00
2023-02-18T07:42:22.766Z,101555.63
2023-02-18T07:44:51.028Z,101560.22
2023-02-18T07:47:19.878Z,101568.44
2023-02-18T07:49:47.733Z,101570.19
2023-02-18T07:52:16.367Z,101562.84
2023-02-18T07:54:45.495Z,101581.00
2023-02-18T07:57:13.287Z,101575.66
2023-02-18T07:59:41.295Z,101586.63
2023-02-18T08:02:16.390Z,101580.88
2023-02-18T08:04:44.272Z,101593.81
2023-02-18T08:07:14.716Z,101589.22
2023-02-18T08:09:42.647Z,101584.88
2023-02-18T08:12:11.768Z,101592.97
2023-02-18T08:14:40.273Z,101596.72
2023-02-18T08:17:08.041Z,101590.47
2023-02-18T08:19:35.845Z,101605.03
2023-02-18T08:22:03.956Z,101606.91
2023-02-18T08:24:31.821Z,101607.88
2023-02-18T08:27:01.534Z,101612.59
2023-02-18T08:29:31.223Z,101618.06
2023-02-18T08:31:59.524Z,101608.38
2023-02-18T08:34:43.067Z,101623.94
2023-02-18T08:37:10.970Z,101622.41
2023-02-18T08:39:40.139Z,101616.91
2023-02-18T08:42:08.177Z,101615.44
2023-02-18T08:44:36.011Z,101606.44
2023-02-18T08:47:03.883Z,101610.16
2023-02-18T08:49:53.902Z,101617.63
2023-02-18T08:52:21.992Z,101622.38
2023-02-18T08:54:49.904Z,101612.41
2023-02-18T08:57:17.732Z,101607.03
2023-02-18T08:59:45.824Z,101613.38
2023-02-18T09:02:15.266Z,101601.56
2023-02-18T09:04:43.103Z,101600.78
2023-02-18T09:07:12.291Z,101602.53
2023-02-18T09:09:40.068Z,101599.81
2023-02-18T09:12:08.472Z,101589.63
2023-02-18T09:14:36.278Z,101591.47
2023-02-18T09:17:04.196Z,101599.59
2023-02-18T09:19:32.024Z,101595.00
2023-02-18T09:22:00.800Z,101584.03
2023-02-18T09:24:30.216Z,101587.50
2023-02-18T09:26:58.026Z,101586.63
2023-02-18T09:29:25.877Z,101594.00
2023-02-18T09:31:53.880Z,101581.16
2023-02-18T09:34:21.969Z,101589.38
2023-02-18T09:36:49.764Z,101584.75
2023-02-18T09:39:18.109Z,101582.03
2023-02-18T09:41:49.662Z,101573.59
2023-02-18T09:44:22.397Z,101570.84
2023-02-18T09:46:53.564Z,101565.75
2023-02-18T09:49:26.210Z,101581.03
2023-02-18T09:51:55.120Z,101564.00
2023-02-18T09:54:23.456Z,101577.56
2023-02-18T09:56:54.840Z,101574.69
2023-02-18T09:59:25.952Z,101567.47
2023-02-18T10:01:55.423Z,101564.88
2023-02-18T10:04:30.068Z,101562.00
2023-02-18T10:06:59.114Z,101566.63
2023-02-18T10:09:31.016Z,101547.31
2023-02-18T10:12:09.373Z,101559.25
2023-02-18T10:14:37.593Z,101540.22
2023-02-18T10:17:06.202Z,101553.91
2023-02-18T10:19:37.548Z,101536.34
2023-02-18T10:22:07.771Z,101549.19
2023-02-18T10:24:39.442Z,101538.22
2023-02-18T10:27:10.267Z,101547.47
2023-02-18T10:29:38.095Z,101545.72
2023-02-18T10:32:15.264Z,101562.00
2023-02-18T10:34:47.051Z,101567.59
2023-02-18T10:37:32.719Z,101570.19
2023-02-18T10:40:09.962Z,101583.88
2023-02-18T10:42:48.773Z,101570.09
2023-02-18T10:45:26.051Z,101576.56
2023-02-18T10:48:06.233Z,101586.78
2023-02-18T10:50:38.837Z,101591.38
2023-02-18T10:53:14.747Z,101602.44
2023-02-18T10:55:44.940Z,101607.03
2023-02-18T10:58:33.858Z,101600.69
2023-02-18T11:01:05.497Z,101602.53
2023-02-18T11:03:45.842Z,101591.47
2023-02-18T11:06:21.702Z,101587.00
2023-02-18T11:08:51.017Z,101597.19
2023-02-18T11:11:24.202Z,101590.72
2023-02-18T11:13:57.050Z,101603.53
2023-02-18T11:16:25.205Z,101605.63
2023-02-18T11:18:53.049Z,101606.75
2023-02-18T11:21:31.135Z,101605.41
2023-02-18T11:24:06.936Z,101598.16
2023-02-18T11:26:37.291Z,101602.66
2023-02-18T11:29:08.911Z,101616.34
2023-02-18T11:31:45.288Z,101607.25
2023-02-18T11:34:18.276Z,101586.34
2023-02-18T11:36:46.162Z,101595.75
2023-02-18T11:39:21.541Z,101596.78
2023-02-18T11:41:55.901Z,101594.16
2023-02-18T11:44:29.886Z,101594.16
2023-02-18T11:47:00.856Z,101594.25
2023-02-18T11:49:30.216Z,101597.25
2023-02-18T11:52:07.516Z,101599.88
2023-02-18T11:54:36.149Z,101592.84
2023-02-18T11:57:06.670Z,101600.88
2023-02-18T11:59:38.487Z,101590.00
2023-02-18T12:02:25.429Z,101602.63
2023-02-18T12:04:59.653Z,101594.59
2023-02-18T12:07:32.612Z,101596.38
2023-02-18T12:10:01.727Z,101590.09
2023-02-18T12:12:32.173Z,101585.72
2023-02-18T12:15:02.099Z,101590.97
2023-02-18T12:17:51.897Z,101597.16
2023-02-18T12:20:37.414Z,101594.53
2023-02-18T12:23:12.955Z,101585.44
2023-02-18T12:25:48.832Z,101579.06
2023-02-18T12:28:35.533Z,101586.31
2023-02-18T12:31:30.609Z,101578.28
2023-02-18T12:34:18.984Z,101580.84
2023-02-18T12:36:59.416Z,101575.38
2023-02-18T12:39:41.572Z,101583.47
2023-02-18T12:42:30.572Z,101580.84
2023-02-18T12:45:14.289Z,101583.31
2023-02-18T12:48:15.468Z,101590.81
2023-02-18T12:50:56.634Z,101578.72
2023-02-18T12:53:50.189Z,101586.94
2023-02-18T12:56:41.809Z,101577.84
2023-02-18T12:59:20.936Z,101573.38
2023-02-18T13:02:00.958Z,101574.13
2023-02-18T13:04:49.002Z,101579.59
2023-02-18T13:07:30.901Z,101569.63
2023-02-18T13:10:20.878Z,101573.25
2023-02-18T13:12:58.768Z,101580.47
2023-02-18T13:15:35.946Z,101582.22
2023-02-18T13:18:09.998Z,101588.69
2023-02-18T13:20:41.777Z,101587.69
2023-02-18T13:23:17.510Z,101585.84
2023-02-18T13:25:46.004Z,101573.25
2023-02-18T13:28:21.986Z,101587.59
2023-02-18T13:30:59.194Z,101583.09
2023-02-18T13:33:36.845Z,101595.69
2023-02-18T13:36:12.479Z,101581.13
2023-02-18T13:38:57.723Z,101580.25
2023-02-18T13:41:28.098Z,101580.25
2023-02-18T13:43:55.960Z,101580.34
2023-02-18T13:46:24.792Z,101585.72
2023-02-18T13:48:55.010Z,101582.00
2023-02-18T13:51:34.205Z,101583.75
2023-02-18T13:54:06.323Z,101591.09
2023-02-18T13:56:36.658Z,101586.72
2023-02-18T13:59:10.383Z,101575.53
2023-02-18T14:01:41.844Z,101577.41
2023-02-18T14:04:48.568Z,101586.59
2023-02-18T14:07:46.295Z,101575.88
2023-02-18T14:10:34.149Z,101572.16
2023-02-18T14:13:18.776Z,101578.50
2023-02-18T14:15:56.336Z,101571.94
2023-02-18T14:18:27.427Z,101581.13
2023-02-18T14:21:06.573Z,101572.81
2023-02-18T14:23:45.106Z,101577.28
2023-02-18T14:26:25.120Z,101569.06
2023-02-18T14:28:59.778Z,101567.31
2023-02-18T14:31:37.244Z,101579.00
2023-02-18T14:34:28.448Z,101568.19
2023-02-18T14:37:11.833Z,101572.66
2023-02-18T14:39:53.716Z,101574.41
2023-02-18T14:42:30.487Z,101569.81
2023-02-18T14:45:12.581Z,101566.09
2023-02-18T14:47:55.845Z,101563.47
2023-02-18T14:50:24.628Z,101566.19
2023-02-18T14:52:57.996Z,101560.50
2023-02-18T14:55:29.578Z,101561.38
2023-02-18T14:58:02.453Z,101563.13
2023-02-18T15:00:32.359Z,101556.09
2023-02-18T15:03:02.998Z,101558.84
2023-02-18T15:05:33.467Z,101555.91
2023-02-18T15:08:02.964Z,101557.66
2023-02-18T15:10:40.557Z,101559.25
2023-02-18T15:13:14.321Z,101558.53
2023-02-18T15:15:44.506Z,101566.72
2023-02-18T15:18:21.741Z,101561.00
2023-02-18T15:20:50.419Z,101559.41
2023-02-18T15:23:18.888Z,101561.16
2023-02-18T15:25:52.069Z,101553.66
2023-02-18T15:28:23.598Z,101559.13
2023-02-18T15:30:51.810Z,101557.53
2023-02-18T15:33:23.577Z,101556.50
2023-02-18T15:35:51.380Z,101566.63
2023-02-18T15:38:21.212Z,101571.06
2023-02-18T15:40:53.399Z,101570.09
2023-02-18T15:43:23.379Z,101564.00
2023-02-18T15:45:53.522Z,101563.88
2023-02-18T15:48:33.138Z,101569.34
2023-02-18T15:51:16.228Z,101571.22
2023-02-18T15:53:48.998Z,101566.72
2023-02-18T15:56:25.258Z,101565.84
2023-02-18T15:59:08.356Z,101569.47
2023-02-18T16:01:36.555Z,101569.78
2023-02-18T16:04:07.373Z,101570.69
2023-02-18T16:06:39.089Z,101565.84
2023-02-18T16:09:16.928Z,101571.22
2023-02-18T16:11:48.770Z,101565.84
2023-02-18T16:14:27.603Z,101567.72
2023-02-18T16:17:09.836Z,101572.22
2023-02-18T16:20:02.895Z,101561.38
2023-02-18T16:22:36.181Z,101565.09
2023-02-18T16:25:14.977Z,101565.75
2023-02-18T16:27:51.977Z,101572.09
2023-02-18T16:30:23.069Z,101571.22
2023-02-18T16:32:51.942Z,101578.56
2023-02-18T16:35:20.559Z,101564.88
2023-02-18T16:37:50.204Z,101564.00
2023-02-18T16:40:30.597Z,101565.59
2023-02-18T16:43:01.853Z,101570.09
2023-02-18T16:45:35.829Z,101566.38
2023-02-18T16:48:06.002Z,101568.34
2023-02-18T16:50:35.283Z,101565.38
2023-02-18T16:53:03.069Z,101573.59
2023-02-18T16:55:32.030Z,101568.88
2023-02-18T16:58:01.364Z,101567.88
2023-02-18T17:00:29.238Z,101558.81
2023-02-18T17:03:00.955Z,101574.09
2023-02-18T17:05:30.590Z,101572.38
2023-02-18T17:08:06.031Z,101566.75
2023-02-18T17:10:36.000Z,101563.28
2023-02-18T17:13:05.144Z,101576.72
2023-02-18T17:15:35.857Z,101574.97
2023-02-18T17:18:04.790Z,101567.63
2023-02-18T17:20:33.992Z,101575.84
2023-02-18T17:23:01.869Z,101577.72
2023-02-18T17:25:34.311Z,101577.59
2023-02-18T17:28:02.468Z,101580.59
2023-02-18T17:30:33.498Z,101583.94
2023-02-18T17:33:03.339Z,101584.06
2023-02-18T17:35:31.929Z,101584.06
2023-02-18T17:38:00.007Z,101582.19
2023-02-18T17:40:29.315Z,101587.69
2023-02-18T17:42:57.854Z,101583.19
2023-02-18T17:45:29.808Z,101587.56
2023-02-18T17:48:00.089Z,101589.53
2023-02-18T17:50:29.823Z,101585.81
2023-02-18T17:52:58.054Z,101573.09
2023-02-18T17:55:28.035Z,101582.09
2023-02-18T17:57:55.892Z,101585.81
2023-02-18T18:00:25.859Z,101581.22
2023-02-18T18:02:53.866Z,101583.19
2023-02-18T18:05:25.882Z,101579.47
2023-02-18T18:07:54.135Z,101577.84
2023-02-18T18:10:25.323Z,101575.84
2023-02-18T18:12:53.176Z,101581.44
2023-02-18T18:15:27.448Z,101584.94
2023-02-18T18:17:56.270Z,101590.78
2023-02-18T18:20:27.599Z,101583.44
2023-02-18T18:22:57.470Z,101591.88
2023-02-18T18:25:27.411Z,101589.38
2023-02-18T18:27:55.669Z,101591.59
2023-02-18T18:30:25.879Z,101587.97
2023-02-18T18:32:54.236Z,101584.63
2023-02-18T18:35:27.065Z,101588.25
2023-02-18T18:37:55.030Z,101586.69
2023-02-18T18:40:25.373Z,101586.81
2023-02-18T18:42:53.812Z,101584.84
2023-02-18T18:45:24.357Z,101583.88
2023-02-18T18:47:53.037Z,101583.97
2023-02-18T18:50:22.033Z,101586.72
2023-02-18T18:52:53.086Z,101580.34
2023-02-18T18:55:25.309Z,101579.47
2023-02-18T18:57:53.277Z,101573.38
2023-02-18T19:00:23.062Z,101577.72
2023-02-18T19:02:51.139Z,101572.38
2023-02-18T19:05:25.557Z,101570.41
2023-02-18T19:07:55.281Z,101575.97
2023-02-18T19:10:23.926Z,101575.25
2023-02-18T19:12:51.809Z,101565.28
2023-02-18T19:15:22.358Z,101572.50
2023-02-18T19:17:51.877Z,101568.91
2023-02-18T19:20:22.807Z,101567.03
2023-02-18T19:22:50.921Z,101564.41
2023-02-18T19:25:21.015Z,101568.91
2023-02-18T19:27:50.345Z,101571.75
2023-02-18T19:30:22.741Z,101564.41
2023-02-18T19:32:51.916Z,101567.34
2023-02-18T19:35:20.053Z,101569.97
2023-02-18T19:37:48.562Z,101568.09
2023-02-18T19:40:21.376Z,101568.03
2023-02-18T19:42:49.507Z,101562.75
2023-02-18T19:45:18.839Z,101565.59
2023-02-18T19:47:47.343Z,101554.53
2023-02-18T19:50:17.039Z,101570.75
2023-02-18T19:52:44.960Z,101550.72
2023-02-18T19:55:12.850Z,101551.59
2023-02-18T19:57:42.064Z,101550.63
2023-02-18T20:00:12.656Z,101550.63
2023-02-18T20:02:43.789Z,101551.59
2023-02-18T20:05:13.705Z,101559.69
2023-02-18T20:07:42.436Z,101551.59
2023-02-18T20:10:13.230Z,101559.56
2023-02-18T20:12:42.651Z,101548.59
2023-02-18T20:15:10.604Z,101550.47
2023-02-18T20:17:39.468Z,101545.88
2023-02-18T20:20:07.958Z,101543.13
2023-02-18T20:22:35.854Z,101539.53
2023-02-18T20:25:03.950Z,101524.13
2023-02-18T20:27:32.997Z,101534.06
2023-02-18T20:30:02.221Z,101539.41
2023-02-18T20:32:30.080Z,101532.34
2023-02-18T20:34:57.973Z,101534.94
2023-02-18T20:37:25.811Z,101528.56
2023-02-18T20:39:53.932Z,101527.59
2023-02-18T20:42:21.788Z,101529.44
2023-02-18T20:44:51.528Z,101523.97
2023-02-18T20:47:20.814Z,101529.34
2023-02-18T20:49:48.588Z,101531.19
2023-02-18T20:52:17.420Z,101525.84
2023-02-18T20:54:45.348Z,101523.97
2023-02-18T20:57:13.303Z,101523.97
2023-02-18T20:59:41.239Z,101518.66
2023-02-18T21:02:09.251Z,101514.16
2023-02-18T21:04:38.436Z,101512.03
2023-02-18T21:07:06.641Z,101517.63
2023-02-18T21:09:34.517Z,101514.88
2023-02-18T21:12:02.404Z,101506.69
2023-02-18T21:14:30.197Z,101499.50
2023-02-18T21:16:58.062Z,101514.78
2023-02-18T21:19:26.061Z,101505.69
2023-02-18T21:21:55.390Z,101493.75
2023-02-18T21:24:23.288Z,101489.28
2023-02-18T21:26:51.146Z,101478.31
2023-02-18T21:29:18.995Z,101479.31
2023-02-18T21:31:46.941Z,101489.28
2023-02-18T21:34:16.436Z,101488.28
2023-02-18T21:36:45.269Z,101494.75
2023-02-18T21:39:14.409Z,101491.91
2023-02-18T21:41:42.279Z,101492.00
2023-02-18T21:44:10.987Z,101499.22
2023-02-18T21:46:40.229Z,101500.09
2023-02-18T21:49:09.601Z,101505.59
2023-02-18T21:52:00.276Z,101500.00
2023-02-18T21:54:31.137Z,101501.97
2023-02-18T21:57:00.747Z,101500.09
2023-02-18T21:59:29.884Z,101498.34
2023-02-18T22:01:59.825Z,101492.88
2023-02-18T22:04:28.127Z,101492.88
2023-02-18T22:06:55.886Z,101499.34
2023-02-18T22:09:23.925Z,101488.53
2023-02-18T22:11:53.074Z,101493.88
2023-02-18T22:14:20.985Z,101492.25
2023-02-18T22:16:48.861Z,101488.53
2023-02-18T22:19:16.767Z,101491.13
2023-02-18T22:21:44.885Z,101484.78
2023-02-18T22:24:14.722Z,101472.84
2023-02-18T22:26:43.889Z,101466.50
2023-02-18T22:29:14.655Z,101454.56
2023-02-18T22:31:42.950Z,101437.25
2023-02-18T22:34:11.293Z,101436.38
2023-02-18T22:36:39.217Z,101419.97
2023-02-18T22:39:08.473Z,101421.84
2023-02-18T22:41:36.648Z,101421.84
2023-02-18T22:44:06.343Z,101426.31
2023-02-18T22:46:37.572Z,101419.09
2023-02-18T22:49:07.321Z,101423.72
2023-02-18T22:51:38.428Z,101404.41
2023-02-18T22:54:07.576Z,101402.66
2023-02-18T22:56:35.402Z,101431.19
2023-02-18T22:59:03.360Z,101442.13
2023-02-18T23:01:32.900Z,101459.41
2023-02-18T23:04:06.917Z,101460.16
2023-02-18T23:06:34.918Z,101445.75
2023-02-18T23:09:03.052Z,101433.03
2023-02-18T23:11:30.885Z,101435.78
2023-02-18T23:14:16.128Z,101444.06
2023-02-18T23:17:01.644Z,101445.06
2023-02-18T23:19:32.122Z,101459.63
2023-02-18T23:22:00.167Z,101462.34
2023-02-18T23:24:28.139Z,101448.78
2023-02-18T23:26:55.977Z,101450.53
2023-02-18T23:29:23.901Z,101449.66
2023-02-18T23:31:51.806Z,101453.28
2023-02-18T23:34:19.598Z,101443.19
2023-02-18T23:36:49.083Z,101436.72
2023-02-18T23:39:19.401Z,101432.16
2023-02-18T23:41:47.718Z,101429.50
2023-02-18T23:44:17.372Z,101425.78
2023-02-18T23:46:45.632Z,101431.38
2023-02-18T23:49:15.953Z,101436.66
2023-02-18T23:51:44.057Z,101418.47
2023-02-18T23:54:13.285Z,101406.63
2023-02-18T23:56:41.407Z,101422.09
2023-02-18T23:59:09.291Z,101404.78
